createdAt,value
2019-05-23T00:02:30.462Z,4.87
2019-05-23T00:07:36.754Z,5.03
2019-05-23T00:12:44.883Z,17.50
2019-05-23T00:17:49.242Z,7.97
2019-05-23T00:22:53.937Z,6.77
2019-05-23T00:27:58.729Z,4.67
2019-05-23T00:33:04.031Z,3.53
2019-05-23T00:38:09.535Z,3.63
2019-05-23T00:43:13.196Z,5.37
2019-05-23T00:48:18.529Z,3.87
2019-05-23T00:53:23.510Z,3.63
2019-05-23T00:58:27.346Z,4.10
2019-05-23T01:03:32.376Z,3.40
2019-05-23T01:08:37.070Z,4.07
2019-05-23T01:13:41.770Z,5.80
2019-05-23T01:18:46.271Z,5.77
2019-05-23T01:23:58.201Z,6.17
2019-05-23T01:29:03.301Z,5.90
2019-05-23T01:34:08.869Z,5.47
2019-05-23T01:39:12.701Z,4.70
2019-05-23T01:44:17.503Z,4.60
2019-05-23T01:49:22.191Z,5.07
2019-05-23T01:54:26.029Z,4.10
2019-05-23T01:59:30.057Z,3.80
2019-05-23T02:04:34.382Z,4.50
2019-05-23T02:09:38.889Z,4.80
2019-05-23T02:14:44.320Z,4.40
2019-05-23T02:19:48.113Z,7.20
2019-05-23T02:24:53.817Z,5.73
2019-05-23T02:29:58.038Z,4.60
2019-05-23T02:35:02.656Z,4.87
2019-05-23T02:40:18.938Z,3.77
2019-05-23T02:45:41.303Z,4.53
2019-05-23T02:50:49.596Z,5.17
2019-05-23T02:55:57.709Z,5.83
2019-05-23T03:01:51.891Z,5.13
2019-05-23T03:06:57.183Z,6.17
2019-05-23T03:12:01.973Z,4.53
2019-05-23T03:17:10.278Z,3.73
2019-05-23T03:22:33.253Z,4.43
2019-05-23T03:27:45.206Z,5.10
2019-05-23T03:32:51.190Z,4.30
2019-05-23T03:37:55.570Z,4.57
2019-05-23T03:42:59.925Z,4.20
2019-05-23T03:48:06.382Z,4.27
2019-05-23T03:53:11.218Z,4.73
2019-05-23T03:58:16.709Z,4.30
2019-05-23T04:03:20.710Z,4.13
2019-05-23T04:08:24.784Z,5.33
2019-05-23T04:13:28.630Z,5.10
2019-05-23T04:18:32.477Z,3.93
2019-05-23T04:23:36.131Z,4.50
2019-05-23T04:28:41.106Z,7.37
2019-05-23T04:33:45.214Z,7.40
2019-05-23T04:38:49.134Z,4.90
2019-05-23T04:43:52.719Z,3.97
2019-05-23T04:48:56.364Z,5.03
2019-05-23T04:54:01.860Z,4.60
2019-05-23T04:59:06.478Z,5.30
2019-05-23T05:04:10.779Z,5.43
2019-05-23T05:09:16.049Z,5.07
2019-05-23T05:14:19.870Z,6.73
2019-05-23T05:19:24.022Z,5.00
2019-05-23T05:24:28.166Z,6.53
2019-05-23T05:29:31.900Z,6.20
2019-05-23T05:34:35.954Z,5.97
2019-05-23T05:39:39.634Z,4.97
2019-05-23T05:44:45.327Z,4.20
2019-05-23T05:49:49.022Z,5.50
2019-05-23T05:54:52.706Z,5.40
2019-05-23T05:59:56.347Z,4.63
2019-05-23T06:05:00.077Z,4.40
2019-05-23T06:10:05.656Z,4.93
2019-05-23T06:15:09.885Z,4.97
2019-05-23T06:20:14.414Z,5.50
2019-05-23T06:25:18.636Z,5.27
2019-05-23T06:30:22.870Z,5.43
2019-05-23T06:35:27.498Z,5.00
2019-05-23T06:40:32.787Z,4.77
2019-05-23T06:45:38.368Z,5.07
2019-05-23T06:50:42.107Z,5.17
2019-05-23T06:55:45.753Z,5.00
2019-05-23T07:00:49.685Z,6.30
2019-05-23T07:05:53.878Z,6.50
2019-05-23T07:10:57.601Z,6.27
2019-05-23T07:16:01.442Z,6.37
2019-05-23T07:21:05.755Z,6.47
2019-05-23T07:26:09.501Z,6.23
2019-05-23T07:31:13.171Z,5.83
2019-05-23T07:36:17.202Z,5.47
2019-05-23T07:41:21.038Z,5.47
2019-05-23T07:46:24.870Z,5.97
2019-05-23T07:51:29.874Z,5.90
2019-05-23T07:56:35.327Z,5.60
2019-05-23T08:01:44.711Z,5.33
2019-05-23T08:07:09.344Z,5.13
2019-05-23T08:12:13.745Z,5.50
2019-05-23T08:17:17.857Z,5.67
2019-05-23T08:22:21.573Z,5.53
2019-05-23T08:27:25.530Z,5.27
2019-05-23T08:32:29.589Z,5.17
2019-05-23T08:37:34.185Z,5.27
2019-05-23T08:42:38.678Z,5.43
2019-05-23T08:47:42.328Z,4.80
2019-05-23T08:52:46.181Z,4.20
2019-05-23T08:57:50.783Z,4.90
2019-05-23T09:02:58.481Z,5.27
2019-05-23T09:08:00.269Z,5.30
2019-05-23T09:13:04.290Z,4.97
2019-05-23T09:18:08.342Z,4.93
2019-05-23T09:23:12.488Z,5.60
2019-05-23T09:28:17.500Z,6.13
2019-05-23T09:33:21.158Z,5.87
2019-05-23T09:38:24.995Z,5.70
2019-05-23T09:43:28.641Z,5.63
2019-05-23T09:48:32.471Z,5.37
2019-05-23T09:53:36.670Z,6.10
2019-05-23T09:58:40.252Z,5.90
2019-05-23T10:03:43.982Z,6.20
2019-05-23T10:08:47.911Z,5.70
2019-05-23T10:13:51.576Z,6.30
2019-05-23T10:18:55.150Z,6.63
2019-05-23T10:23:59.286Z,6.60
2019-05-23T10:29:03.016Z,5.80
2019-05-23T10:34:07.377Z,5.77
2019-05-23T10:39:13.287Z,6.17
2019-05-23T10:44:17.815Z,6.90
2019-05-23T10:49:21.430Z,5.40
2019-05-23T10:54:25.527Z,5.83
2019-05-23T10:59:29.146Z,5.80
2019-05-23T11:04:32.973Z,6.30
2019-05-23T11:09:38.509Z,5.97
2019-05-23T11:14:41.980Z,6.37
2019-05-23T11:19:45.816Z,5.90
2019-05-23T11:24:49.805Z,5.63
2019-05-23T11:29:53.477Z,6.57
2019-05-23T11:34:57.194Z,6.53
2019-05-23T11:40:00.965Z,6.43
2019-05-23T11:45:07.413Z,5.80
2019-05-23T11:50:11.752Z,6.00
2019-05-23T11:55:16.692Z,5.90
2019-05-23T12:00:23.978Z,5.50
2019-05-23T12:05:29.871Z,5.30
2019-05-23T12:10:33.638Z,5.70
2019-05-23T12:15:38.860Z,5.50
2019-05-23T12:20:42.579Z,5.10
2019-05-23T12:25:46.805Z,4.93
2019-05-23T12:30:50.467Z,5.27
2019-05-23T12:35:54.452Z,5.13
2019-05-23T12:40:58.378Z,5.30
2019-05-23T12:46:02.177Z,5.03
2019-05-23T12:51:07.921Z,4.77
2019-05-23T12:56:11.797Z,4.37
2019-05-23T13:01:16.618Z,5.40
2019-05-23T13:06:22.152Z,5.13
2019-05-23T13:11:26.275Z,5.27
2019-05-23T13:16:30.266Z,5.10
2019-05-23T13:21:33.896Z,5.07
2019-05-23T13:26:37.717Z,4.80
2019-05-23T13:31:41.545Z,4.50
2019-05-23T13:36:45.488Z,5.43
2019-05-23T13:41:49.074Z,4.80
2019-05-23T13:46:53.654Z,4.67
2019-05-23T13:51:57.377Z,4.63
2019-05-23T13:57:01.718Z,4.37
2019-05-23T14:02:07.314Z,5.27
2019-05-23T14:07:12.539Z,4.43
2019-05-23T14:12:21.450Z,4.50
2019-05-23T14:17:33.449Z,5.23
2019-05-23T14:22:38.903Z,4.97
2019-05-23T14:27:53.392Z,4.93
2019-05-23T14:32:59.077Z,5.07
2019-05-23T14:38:05.756Z,4.97
2019-05-23T14:43:17.230Z,5.20
2019-05-23T14:48:25.844Z,5.60
2019-05-23T14:53:37.372Z,5.33
2019-05-23T14:58:41.393Z,5.67
2019-05-23T15:03:46.175Z,5.27
2019-05-23T15:08:51.721Z,5.43
2019-05-23T15:13:56.177Z,4.93
2019-05-23T15:19:00.615Z,4.90
2019-05-23T15:24:04.625Z,5.37
2019-05-23T15:29:08.347Z,5.30
2019-05-23T15:34:12.073Z,5.60
2019-05-23T15:39:16.696Z,5.27
2019-05-23T15:44:26.800Z,5.40
2019-05-23T15:49:26.300Z,5.10
2019-05-23T15:54:31.793Z,5.10
2019-05-23T15:59:37.301Z,4.90
2019-05-23T16:04:41.833Z,5.10
2019-05-23T16:09:45.785Z,4.73
2019-05-23T16:14:49.510Z,5.40
2019-05-23T16:19:53.229Z,4.90
2019-05-23T16:24:57.249Z,6.90
2019-05-23T16:30:00.892Z,5.73
2019-05-23T16:35:05.926Z,4.70
2019-05-23T16:40:09.860Z,4.60
2019-05-23T16:45:13.885Z,4.57
2019-05-23T16:50:17.683Z,4.53
2019-05-23T16:55:35.219Z,5.63
2019-05-23T17:00:55.862Z,4.30
2019-05-23T17:06:01.461Z,4.63
2019-05-23T17:11:12.988Z,5.03
2019-05-23T17:16:27.494Z,4.83
2019-05-23T17:21:39.116Z,4.90
2019-05-23T17:26:50.208Z,4.90
2019-05-23T17:31:55.979Z,4.83
2019-05-23T17:36:59.624Z,5.07
2019-05-23T17:42:03.546Z,4.87
2019-05-23T17:47:07.229Z,5.03
2019-05-23T17:52:11.525Z,4.57
2019-05-23T17:57:15.524Z,5.30
2019-05-23T18:02:20.079Z,4.67
2019-05-23T18:07:24.133Z,4.57
2019-05-23T18:12:27.919Z,8.90
2019-05-23T18:17:32.337Z,4.87
2019-05-23T18:22:37.845Z,5.40
2019-05-23T18:27:42.437Z,4.53
2019-05-23T18:32:47.371Z,5.10
2019-05-23T18:37:51.025Z,5.10
2019-05-23T18:42:54.742Z,4.73
2019-05-23T18:47:59.661Z,4.27
2019-05-23T18:53:04.383Z,4.57
2019-05-23T18:58:09.607Z,4.80
2019-05-23T19:03:13.530Z,9.57
2019-05-23T19:08:17.199Z,11.80
2019-05-23T19:13:21.215Z,6.87
2019-05-23T19:18:25.137Z,11.40
2019-05-23T19:23:29.425Z,6.87
2019-05-23T19:28:34.054Z,9.90
2019-05-23T19:33:38.381Z,10.60
2019-05-23T19:38:42.386Z,12.00
2019-05-23T19:43:48.189Z,8.73
2019-05-23T19:48:52.843Z,9.77
2019-05-23T19:53:57.040Z,8.17
2019-05-23T19:59:00.965Z,7.67
2019-05-23T20:04:06.941Z,6.33
2019-05-23T20:09:12.715Z,11.50
2019-05-23T20:14:16.376Z,10.50
2019-05-23T20:19:19.962Z,8.07
2019-05-23T20:24:23.901Z,11.27
2019-05-23T20:29:28.623Z,7.03
2019-05-23T20:34:32.285Z,6.43
2019-05-23T20:39:35.875Z,6.23
2019-05-23T20:44:39.598Z,6.90
2019-05-23T20:49:43.266Z,11.23
2019-05-23T20:54:47.324Z,12.03
2019-05-23T20:59:51.310Z,6.97
2019-05-23T21:04:55.038Z,6.67
2019-05-23T21:09:58.755Z,6.23
2019-05-23T21:15:02.897Z,6.93
2019-05-23T21:20:07.210Z,7.10
2019-05-23T21:25:11.028Z,9.07
2019-05-23T21:30:14.820Z,7.77
2019-05-23T21:35:19.231Z,7.63
2019-05-23T21:40:38.231Z,7.10
2019-05-23T21:45:42.483Z,8.00
2019-05-23T21:50:46.549Z,7.03
2019-05-23T21:55:50.480Z,6.67
2019-05-23T22:01:08.238Z,7.23
2019-05-23T22:06:14.491Z,13.50
2019-05-23T22:11:18.310Z,8.80
2019-05-23T22:16:22.752Z,8.30
2019-05-23T22:21:26.487Z,7.97
2019-05-23T22:26:30.454Z,9.83
2019-05-23T22:31:34.429Z,11.30
2019-05-23T22:36:38.187Z,11.93
2019-05-23T22:41:42.121Z,7.73
2019-05-23T22:46:45.897Z,7.63
2019-05-23T22:51:49.476Z,8.47
2019-05-23T22:56:53.072Z,14.47
2019-05-23T23:01:56.720Z,8.30
2019-05-23T23:07:00.707Z,8.17
2019-05-23T23:12:04.441Z,7.80
2019-05-23T23:17:08.266Z,7.20
2019-05-23T23:22:13.653Z,10.30
2019-05-23T23:27:17.581Z,10.17
2019-05-23T23:32:21.749Z,8.60
2019-05-23T23:37:25.825Z,11.57
2019-05-23T23:42:29.589Z,12.53
2019-05-23T23:47:51.518Z,11.37
2019-05-23T23:53:12.984Z,8.50
2019-05-23T23:58:15.997Z,7.53
